sensor_id;sensor_type;location;lat;lon;timestamp;P1;durP1;ratioP1;P2;durP2;ratioP2
72639;SDS011;60683;51.730;8.762;2023-05-10T00:02:15;18.13;;;9.38;;
72639;SDS011;60683;51.730;8.762;2023-05-10T00:04:43;17.63;;;9.93;;
72639;SDS011;60683;51.730;8.762;2023-05-10T00:07:10;19.13;;;10.00;;
72639;SDS011;60683;51.730;8.762;2023-05-10T00:09:38;15.73;;;8.93;;
72639;SDS011;60683;51.730;8.762;2023-05-10T00:12:05;16.70;;;9.20;;
72639;SDS011;60683;51.730;8.762;2023-05-10T00:14:33;17.23;;;9.90;;
72639;SDS011;60683;51.730;8.762;2023-05-10T00:17:02;16.92;;;10.15;;
72639;SDS011;60683;51.730;8.762;2023-05-10T00:19:29;20.17;;;10.13;;
72639;SDS011;60683;51.730;8.762;2023-05-10T00:21:57;18.85;;;10.38;;
72639;SDS011;60683;51.730;8.762;2023-05-10T00:24:24;17.90;;;10.82;;
72639;SDS011;60683;51.730;8.762;2023-05-10T00:26:52;18.10;;;9.23;;
72639;SDS011;60683;51.730;8.762;2023-05-10T00:29:20;20.30;;;10.02;;
72639;SDS011;60683;51.730;8.762;2023-05-10T00:31:47;18.35;;;9.80;;
72639;SDS011;60683;51.730;8.762;2023-05-10T00:34:16;18.63;;;10.20;;
72639;SDS011;60683;51.730;8.762;2023-05-10T00:36:43;20.10;;;11.20;;
72639;SDS011;60683;51.730;8.762;2023-05-10T00:39:11;22.63;;;12.57;;
72639;SDS011;60683;51.730;8.762;2023-05-10T00:41:39;21.63;;;11.73;;
72639;SDS011;60683;51.730;8.762;2023-05-10T00:44:06;23.42;;;12.52;;
72639;SDS011;60683;51.730;8.762;2023-05-10T00:46:34;24.60;;;12.60;;
72639;SDS011;60683;51.730;8.762;2023-05-10T00:49:02;23.98;;;11.88;;
72639;SDS011;60683;51.730;8.762;2023-05-10T00:51:31;24.40;;;12.02;;
72639;SDS011;60683;51.730;8.762;2023-05-10T00:54:00;25.08;;;11.68;;
72639;SDS011;60683;51.730;8.762;2023-05-10T00:56:27;25.13;;;12.77;;
72639;SDS011;60683;51.730;8.762;2023-05-10T00:58:55;21.92;;;11.98;;
72639;SDS011;60683;51.730;8.762;2023-05-10T01:01:23;23.58;;;11.15;;
72639;SDS011;60683;51.730;8.762;2023-05-10T01:03:50;20.70;;;10.88;;
72639;SDS011;60683;51.730;8.762;2023-05-10T01:06:18;20.95;;;11.32;;
72639;SDS011;60683;51.730;8.762;2023-05-10T01:08:47;22.30;;;11.63;;
72639;SDS011;60683;51.730;8.762;2023-05-10T01:11:14;22.42;;;10.65;;
72639;SDS011;60683;51.730;8.762;2023-05-10T01:13:42;15.35;;;9.05;;
72639;SDS011;60683;51.730;8.762;2023-05-10T01:16:10;17.35;;;9.23;;
72639;SDS011;60683;51.730;8.762;2023-05-10T01:18:38;17.85;;;8.60;;
72639;SDS011;60683;51.730;8.762;2023-05-10T01:21:10;14.98;;;8.82;;
72639;SDS011;60683;51.730;8.762;2023-05-10T01:23:49;15.60;;;8.15;;
72639;SDS011;60683;51.730;8.762;2023-05-10T01:26:39;14.48;;;9.45;;
72639;SDS011;60683;51.730;8.762;2023-05-10T01:29:35;13.85;;;7.82;;
72639;SDS011;60683;51.730;8.762;2023-05-10T01:32:24;15.50;;;8.32;;
72639;SDS011;60683;51.730;8.762;2023-05-10T01:34:59;14.52;;;8.05;;
72639;SDS011;60683;51.730;8.762;2023-05-10T01:37:33;12.43;;;6.63;;
72639;SDS011;60683;51.730;8.762;2023-05-10T01:40:07;11.88;;;7.00;;
72639;SDS011;60683;51.730;8.762;2023-05-10T01:42:39;11.68;;;6.38;;
72639;SDS011;60683;51.730;8.762;2023-05-10T01:45:11;11.48;;;6.25;;
72639;SDS011;60683;51.730;8.762;2023-05-10T01:47:46;10.35;;;5.70;;
72639;SDS011;60683;51.730;8.762;2023-05-10T01:50:19;8.90;;;5.22;;
72639;SDS011;60683;51.730;8.762;2023-05-10T01:52:50;9.98;;;5.72;;
72639;SDS011;60683;51.730;8.762;2023-05-10T01:55:22;8.20;;;3.97;;
72639;SDS011;60683;51.730;8.762;2023-05-10T01:57:52;7.40;;;3.08;;
72639;SDS011;60683;51.730;8.762;2023-05-10T02:00:26;5.50;;;2.45;;
72639;SDS011;60683;51.730;8.762;2023-05-10T02:02:56;4.22;;;2.40;;
72639;SDS011;60683;51.730;8.762;2023-05-10T02:05:24;4.38;;;2.97;;
72639;SDS011;60683;51.730;8.762;2023-05-10T02:07:53;7.57;;;4.00;;
72639;SDS011;60683;51.730;8.762;2023-05-10T02:10:21;5.68;;;3.13;;
72639;SDS011;60683;51.730;8.762;2023-05-10T02:12:48;7.30;;;3.58;;
72639;SDS011;60683;51.730;8.762;2023-05-10T02:15:18;8.75;;;4.38;;
72639;SDS011;60683;51.730;8.762;2023-05-10T02:17:48;7.68;;;4.57;;
72639;SDS011;60683;51.730;8.762;2023-05-10T02:20:17;10.38;;;4.85;;
72639;SDS011;60683;51.730;8.762;2023-05-10T02:22:46;6.95;;;3.33;;
72639;SDS011;60683;51.730;8.762;2023-05-10T02:25:15;10.43;;;5.07;;
72639;SDS011;60683;51.730;8.762;2023-05-10T02:27:45;9.60;;;4.95;;
72639;SDS011;60683;51.730;8.762;2023-05-10T02:30:15;10.38;;;5.63;;
72639;SDS011;60683;51.730;8.762;2023-05-10T02:32:43;8.23;;;4.22;;
72639;SDS011;60683;51.730;8.762;2023-05-10T02:35:11;10.55;;;5.25;;
72639;SDS011;60683;51.730;8.762;2023-05-10T02:37:40;10.90;;;5.63;;
72639;SDS011;60683;51.730;8.762;2023-05-10T02:40:08;8.75;;;4.13;;
72639;SDS011;60683;51.730;8.762;2023-05-10T02:42:37;11.52;;;6.10;;
72639;SDS011;60683;51.730;8.762;2023-05-10T02:45:07;9.18;;;5.35;;
72639;SDS011;60683;51.730;8.762;2023-05-10T02:47:37;11.38;;;5.30;;
72639;SDS011;60683;51.730;8.762;2023-05-10T02:50:05;9.00;;;4.60;;
72639;SDS011;60683;51.730;8.762;2023-05-10T02:52:36;11.05;;;5.22;;
72639;SDS011;60683;51.730;8.762;2023-05-10T02:55:09;10.30;;;5.60;;
72639;SDS011;60683;51.730;8.762;2023-05-10T02:57:40;11.15;;;5.63;;
72639;SDS011;60683;51.730;8.762;2023-05-10T03:00:09;11.85;;;5.60;;
72639;SDS011;60683;51.730;8.762;2023-05-10T03:02:37;11.77;;;5.43;;
72639;SDS011;60683;51.730;8.762;2023-05-10T03:05:05;10.93;;;5.28;;
72639;SDS011;60683;51.730;8.762;2023-05-10T03:07:32;11.30;;;5.28;;
72639;SDS011;60683;51.730;8.762;2023-05-10T03:10:02;10.52;;;5.05;;
72639;SDS011;60683;51.730;8.762;2023-05-10T03:12:31;9.88;;;5.10;;
72639;SDS011;60683;51.730;8.762;2023-05-10T03:15:07;10.35;;;5.03;;
72639;SDS011;60683;51.730;8.762;2023-05-10T03:17:41;7.55;;;3.65;;
72639;SDS011;60683;51.730;8.762;2023-05-10T03:20:16;10.43;;;5.13;;
72639;SDS011;60683;51.730;8.762;2023-05-10T03:22:49;9.95;;;4.97;;
72639;SDS011;60683;51.730;8.762;2023-05-10T03:25:21;7.95;;;4.57;;
72639;SDS011;60683;51.730;8.762;2023-05-10T03:27:49;10.52;;;5.25;;
72639;SDS011;60683;51.730;8.762;2023-05-10T03:30:17;9.48;;;5.20;;
72639;SDS011;60683;51.730;8.762;2023-05-10T03:32:45;8.15;;;4.60;;
72639;SDS011;60683;51.730;8.762;2023-05-10T03:35:13;9.15;;;4.85;;
72639;SDS011;60683;51.730;8.762;2023-05-10T03:37:41;9.80;;;5.50;;
72639;SDS011;60683;51.730;8.762;2023-05-10T03:40:08;8.88;;;4.82;;
72639;SDS011;60683;51.730;8.762;2023-05-10T03:42:38;11.52;;;5.57;;
72639;SDS011;60683;51.730;8.762;2023-05-10T03:45:06;8.00;;;4.40;;
72639;SDS011;60683;51.730;8.762;2023-05-10T03:47:34;8.10;;;4.07;;
72639;SDS011;60683;51.730;8.762;2023-05-10T03:50:02;9.70;;;4.72;;
72639;SDS011;60683;51.730;8.762;2023-05-10T03:52:29;6.70;;;4.15;;
72639;SDS011;60683;51.730;8.762;2023-05-10T03:54:57;8.88;;;4.63;;
72639;SDS011;60683;51.730;8.762;2023-05-10T03:57:25;6.88;;;3.58;;
72639;SDS011;60683;51.730;8.762;2023-05-10T03:59:54;9.23;;;4.68;;
72639;SDS011;60683;51.730;8.762;2023-05-10T04:02:21;6.45;;;3.42;;
72639;SDS011;60683;51.730;8.762;2023-05-10T04:04:49;7.10;;;3.70;;
72639;SDS011;60683;51.730;8.762;2023-05-10T04:07:16;7.63;;;4.40;;
72639;SDS011;60683;51.730;8.762;2023-05-10T04:09:44;9.80;;;4.57;;
72639;SDS011;60683;51.730;8.762;2023-05-10T04:12:12;8.23;;;3.72;;
72639;SDS011;60683;51.730;8.762;2023-05-10T04:14:39;8.77;;;3.83;;
72639;SDS011;60683;51.730;8.762;2023-05-10T04:17:08;8.77;;;4.22;;
72639;SDS011;60683;51.730;8.762;2023-05-10T04:19:36;6.78;;;3.47;;
72639;SDS011;60683;51.730;8.762;2023-05-10T04:22:04;9.43;;;4.65;;
72639;SDS011;60683;51.730;8.762;2023-05-10T04:24:32;8.32;;;4.43;;
72639;SDS011;60683;51.730;8.762;2023-05-10T04:26:59;9.60;;;4.40;;
72639;SDS011;60683;51.730;8.762;2023-05-10T04:29:26;10.13;;;4.47;;
72639;SDS011;60683;51.730;8.762;2023-05-10T04:31:54;7.53;;;3.78;;
72639;SDS011;60683;51.730;8.762;2023-05-10T04:34:25;9.32;;;4.35;;
72639;SDS011;60683;51.730;8.762;2023-05-10T04:36:52;7.55;;;4.07;;
72639;SDS011;60683;51.730;8.762;2023-05-10T04:39:20;9.95;;;4.90;;
72639;SDS011;60683;51.730;8.762;2023-05-10T04:41:47;8.52;;;4.43;;
72639;SDS011;60683;51.730;8.762;2023-05-10T04:44:15;8.02;;;4.03;;
72639;SDS011;60683;51.730;8.762;2023-05-10T04:46:42;9.98;;;5.07;;
72639;SDS011;60683;51.730;8.762;2023-05-10T04:49:10;10.40;;;4.97;;
72639;SDS011;60683;51.730;8.762;2023-05-10T04:51:39;7.20;;;2.95;;
72639;SDS011;60683;51.730;8.762;2023-05-10T04:54:06;6.65;;;3.33;;
72639;SDS011;60683;51.730;8.762;2023-05-10T04:56:34;7.47;;;3.83;;
72639;SDS011;60683;51.730;8.762;2023-05-10T04:59:01;5.57;;;2.70;;
72639;SDS011;60683;51.730;8.762;2023-05-10T05:01:29;5.25;;;2.30;;
72639;SDS011;60683;51.730;8.762;2023-05-10T05:03:56;5.10;;;2.03;;
72639;SDS011;60683;51.730;8.762;2023-05-10T05:06:24;5.22;;;2.08;;
72639;SDS011;60683;51.730;8.762;2023-05-10T05:08:54;5.05;;;2.20;;
72639;SDS011;60683;51.730;8.762;2023-05-10T05:11:22;4.28;;;1.80;;
72639;SDS011;60683;51.730;8.762;2023-05-10T05:13:49;3.53;;;1.70;;
72639;SDS011;60683;51.730;8.762;2023-05-10T05:16:17;4.95;;;1.83;;
72639;SDS011;60683;51.730;8.762;2023-05-10T05:18:45;4.78;;;2.10;;
72639;SDS011;60683;51.730;8.762;2023-05-10T05:21:15;4.72;;;2.15;;
72639;SDS011;60683;51.730;8.762;2023-05-10T05:23:43;4.05;;;1.42;;
72639;SDS011;60683;51.730;8.762;2023-05-10T05:26:13;6.50;;;2.55;;
72639;SDS011;60683;51.730;8.762;2023-05-10T05:28:41;5.20;;;2.50;;
72639;SDS011;60683;51.730;8.762;2023-05-10T05:31:08;5.80;;;3.05;;
72639;SDS011;60683;51.730;8.762;2023-05-10T05:33:36;6.57;;;2.78;;
72639;SDS011;60683;51.730;8.762;2023-05-10T05:36:04;7.05;;;2.88;;
72639;SDS011;60683;51.730;8.762;2023-05-10T05:38:33;5.63;;;2.40;;
72639;SDS011;60683;51.730;8.762;2023-05-10T05:41:00;6.43;;;2.75;;
72639;SDS011;60683;51.730;8.762;2023-05-10T05:43:30;5.85;;;3.03;;
72639;SDS011;60683;51.730;8.762;2023-05-10T05:45:57;5.78;;;2.58;;
72639;SDS011;60683;51.730;8.762;2023-05-10T05:48:25;6.65;;;2.60;;
72639;SDS011;60683;51.730;8.762;2023-05-10T05:50:54;4.55;;;2.13;;
72639;SDS011;60683;51.730;8.762;2023-05-10T05:53:22;7.15;;;2.78;;
72639;SDS011;60683;51.730;8.762;2023-05-10T05:55:50;5.93;;;3.15;;
72639;SDS011;60683;51.730;8.762;2023-05-10T05:58:19;6.55;;;3.30;;
72639;SDS011;60683;51.730;8.762;2023-05-10T06:00:48;7.65;;;3.65;;
72639;SDS011;60683;51.730;8.762;2023-05-10T06:03:16;7.43;;;3.17;;
72639;SDS011;60683;51.730;8.762;2023-05-10T06:05:44;8.00;;;3.67;;
72639;SDS011;60683;51.730;8.762;2023-05-10T06:08:11;8.38;;;3.50;;
72639;SDS011;60683;51.730;8.762;2023-05-10T06:10:39;7.05;;;3.55;;
72639;SDS011;60683;51.730;8.762;2023-05-10T06:13:06;5.80;;;2.40;;
72639;SDS011;60683;51.730;8.762;2023-05-10T06:15:34;4.43;;;2.17;;
72639;SDS011;60683;51.730;8.762;2023-05-10T06:18:03;6.13;;;2.92;;
72639;SDS011;60683;51.730;8.762;2023-05-10T06:20:32;5.85;;;2.38;;
72639;SDS011;60683;51.730;8.762;2023-05-10T06:22:59;5.95;;;2.58;;
72639;SDS011;60683;51.730;8.762;2023-05-10T06:25:27;6.05;;;2.55;;
72639;SDS011;60683;51.730;8.762;2023-05-10T06:27:54;5.60;;;2.25;;
72639;SDS011;60683;51.730;8.762;2023-05-10T06:30:24;6.38;;;2.33;;
72639;SDS011;60683;51.730;8.762;2023-05-10T06:32:54;4.65;;;2.00;;
72639;SDS011;60683;51.730;8.762;2023-05-10T06:35:23;4.90;;;2.05;;
72639;SDS011;60683;51.730;8.762;2023-05-10T06:37:50;5.03;;;2.53;;
72639;SDS011;60683;51.730;8.762;2023-05-10T06:40:18;4.32;;;1.70;;
72639;SDS011;60683;51.730;8.762;2023-05-10T06:42:46;4.13;;;1.77;;
72639;SDS011;60683;51.730;8.762;2023-05-10T06:45:13;4.78;;;2.03;;
72639;SDS011;60683;51.730;8.762;2023-05-10T06:47:42;6.25;;;2.30;;
72639;SDS011;60683;51.730;8.762;2023-05-10T06:50:10;4.78;;;1.92;;
72639;SDS011;60683;51.730;8.762;2023-05-10T06:52:39;5.55;;;2.40;;
72639;SDS011;60683;51.730;8.762;2023-05-10T06:55:07;7.28;;;2.63;;
72639;SDS011;60683;51.730;8.762;2023-05-10T06:57:35;5.85;;;2.60;;
72639;SDS011;60683;51.730;8.762;2023-05-10T07:00:03;4.93;;;2.38;;
72639;SDS011;60683;51.730;8.762;2023-05-10T07:02:31;5.30;;;2.58;;
72639;SDS011;60683;51.730;8.762;2023-05-10T07:04:59;7.78;;;2.88;;
72639;SDS011;60683;51.730;8.762;2023-05-10T07:07:27;6.18;;;2.28;;
72639;SDS011;60683;51.730;8.762;2023-05-10T07:09:56;4.78;;;2.22;;
72639;SDS011;60683;51.730;8.762;2023-05-10T07:12:24;4.60;;;2.28;;
72639;SDS011;60683;51.730;8.762;2023-05-10T07:14:51;3.33;;;1.58;;
72639;SDS011;60683;51.730;8.762;2023-05-10T07:17:19;5.47;;;2.53;;
72639;SDS011;60683;51.730;8.762;2023-05-10T07:19:47;5.70;;;2.45;;
72639;SDS011;60683;51.730;8.762;2023-05-10T07:22:14;6.63;;;2.38;;
72639;SDS011;60683;51.730;8.762;2023-05-10T07:24:42;7.13;;;2.58;;
72639;SDS011;60683;51.730;8.762;2023-05-10T07:27:11;6.85;;;2.92;;
72639;SDS011;60683;51.730;8.762;2023-05-10T07:29:40;6.35;;;3.00;;
72639;SDS011;60683;51.730;8.762;2023-05-10T07:32:07;6.50;;;2.33;;
72639;SDS011;60683;51.730;8.762;2023-05-10T07:34:35;5.35;;;2.05;;
72639;SDS011;60683;51.730;8.762;2023-05-10T07:37:03;6.53;;;2.35;;
72639;SDS011;60683;51.730;8.762;2023-05-10T07:39:32;5.22;;;2.42;;
72639;SDS011;60683;51.730;8.762;2023-05-10T07:41:59;7.32;;;2.50;;
72639;SDS011;60683;51.730;8.762;2023-05-10T07:44:28;6.13;;;2.88;;
72639;SDS011;60683;51.730;8.762;2023-05-10T07:46:56;5.97;;;2.25;;
72639;SDS011;60683;51.730;8.762;2023-05-10T07:49:24;5.05;;;2.75;;
72639;SDS011;60683;51.730;8.762;2023-05-10T07:51:52;5.60;;;2.53;;
72639;SDS011;60683;51.730;8.762;2023-05-10T07:54:20;6.55;;;2.70;;
72639;SDS011;60683;51.730;8.762;2023-05-10T07:56:47;6.80;;;2.85;;
72639;SDS011;60683;51.730;8.762;2023-05-10T07:59:16;5.45;;;2.38;;
72639;SDS011;60683;51.730;8.762;2023-05-10T08:01:46;7.40;;;3.58;;
72639;SDS011;60683;51.730;8.762;2023-05-10T08:04:14;8.68;;;3.13;;
72639;SDS011;60683;51.730;8.762;2023-05-10T08:06:41;6.50;;;3.05;;
72639;SDS011;60683;51.730;8.762;2023-05-10T08:09:10;8.23;;;3.50;;
72639;SDS011;60683;51.730;8.762;2023-05-10T08:11:37;8.02;;;3.47;;
72639;SDS011;60683;51.730;8.762;2023-05-10T08:14:05;8.20;;;3.53;;
72639;SDS011;60683;51.730;8.762;2023-05-10T08:16:33;8.88;;;3.42;;
72639;SDS011;60683;51.730;8.762;2023-05-10T08:19:03;5.78;;;2.72;;
72639;SDS011;60683;51.730;8.762;2023-05-10T08:21:30;10.95;;;3.45;;
72639;SDS011;60683;51.730;8.762;2023-05-10T08:23:58;7.43;;;3.55;;
72639;SDS011;60683;51.730;8.762;2023-05-10T08:26:26;8.65;;;3.80;;
72639;SDS011;60683;51.730;8.762;2023-05-10T08:28:54;11.82;;;4.82;;
72639;SDS011;60683;51.730;8.762;2023-05-10T08:31:21;7.68;;;4.22;;
72639;SDS011;60683;51.730;8.762;2023-05-10T08:33:49;9.82;;;3.95;;
72639;SDS011;60683;51.730;8.762;2023-05-10T08:36:19;14.63;;;7.30;;
72639;SDS011;60683;51.730;8.762;2023-05-10T08:38:50;14.32;;;6.88;;
72639;SDS011;60683;51.730;8.762;2023-05-10T08:41:19;13.80;;;7.35;;
72639;SDS011;60683;51.730;8.762;2023-05-10T08:43:47;18.65;;;8.65;;
72639;SDS011;60683;51.730;8.762;2023-05-10T08:46:16;16.00;;;8.10;;
72639;SDS011;60683;51.730;8.762;2023-05-10T08:48:45;18.65;;;8.27;;
72639;SDS011;60683;51.730;8.762;2023-05-10T08:51:13;19.00;;;8.38;;
72639;SDS011;60683;51.730;8.762;2023-05-10T08:53:44;16.13;;;7.55;;
72639;SDS011;60683;51.730;8.762;2023-05-10T08:56:11;18.33;;;8.40;;
72639;SDS011;60683;51.730;8.762;2023-05-10T08:58:39;19.75;;;7.28;;
72639;SDS011;60683;51.730;8.762;2023-05-10T09:01:07;18.58;;;8.68;;
72639;SDS011;60683;51.730;8.762;2023-05-10T09:03:35;16.35;;;8.70;;
72639;SDS011;60683;51.730;8.762;2023-05-10T09:06:02;20.50;;;9.60;;
72639;SDS011;60683;51.730;8.762;2023-05-10T09:08:31;20.73;;;10.13;;
72639;SDS011;60683;51.730;8.762;2023-05-10T09:11:00;23.02;;;9.50;;
72639;SDS011;60683;51.730;8.762;2023-05-10T09:15:56;18.05;;;7.78;;
72639;SDS011;60683;51.730;8.762;2023-05-10T09:18:24;19.10;;;8.90;;
72639;SDS011;60683;51.730;8.762;2023-05-10T09:20:52;20.83;;;9.27;;
72639;SDS011;60683;51.730;8.762;2023-05-10T09:23:20;20.48;;;9.63;;
72639;SDS011;60683;51.730;8.762;2023-05-10T09:25:47;18.13;;;8.55;;
72639;SDS011;60683;51.730;8.762;2023-05-10T09:28:17;17.75;;;9.45;;
72639;SDS011;60683;51.730;8.762;2023-05-10T09:30:45;20.48;;;9.63;;
72639;SDS011;60683;51.730;8.762;2023-05-10T09:33:21;20.70;;;10.77;;
72639;SDS011;60683;51.730;8.762;2023-05-10T09:35:49;20.00;;;9.15;;
72639;SDS011;60683;51.730;8.762;2023-05-10T09:38:19;21.52;;;9.52;;
72639;SDS011;60683;51.730;8.762;2023-05-10T09:40:50;16.02;;;7.93;;
72639;SDS011;60683;51.730;8.762;2023-05-10T09:43:22;22.80;;;9.23;;
72639;SDS011;60683;51.730;8.762;2023-05-10T09:45:49;19.65;;;9.45;;
72639;SDS011;60683;51.730;8.762;2023-05-10T09:48:17;20.92;;;9.90;;
72639;SDS011;60683;51.730;8.762;2023-05-10T09:50:45;22.98;;;9.75;;
72639;SDS011;60683;51.730;8.762;2023-05-10T09:53:14;23.13;;;10.88;;
72639;SDS011;60683;51.730;8.762;2023-05-10T09:55:43;19.35;;;9.63;;
72639;SDS011;60683;51.730;8.762;2023-05-10T09:58:12;20.77;;;9.25;;
72639;SDS011;60683;51.730;8.762;2023-05-10T10:00:42;21.58;;;9.77;;
72639;SDS011;60683;51.730;8.762;2023-05-10T10:03:12;16.83;;;8.43;;
72639;SDS011;60683;51.730;8.762;2023-05-10T10:05:41;19.08;;;9.52;;
72639;SDS011;60683;51.730;8.762;2023-05-10T10:08:09;19.80;;;9.32;;
72639;SDS011;60683;51.730;8.762;2023-05-10T10:10:37;17.85;;;9.43;;
72639;SDS011;60683;51.730;8.762;2023-05-10T10:13:06;18.48;;;9.57;;
72639;SDS011;60683;51.730;8.762;2023-05-10T10:15:34;21.10;;;9.50;;
72639;SDS011;60683;51.730;8.762;2023-05-10T10:18:04;16.17;;;7.72;;
72639;SDS011;60683;51.730;8.762;2023-05-10T10:20:32;17.92;;;9.10;;
72639;SDS011;60683;51.730;8.762;2023-05-10T10:22:59;17.42;;;9.65;;
72639;SDS011;60683;51.730;8.762;2023-05-10T10:25:27;23.20;;;10.80;;
72639;SDS011;60683;51.730;8.762;2023-05-10T10:28:01;20.02;;;10.35;;
72639;SDS011;60683;51.730;8.762;2023-05-10T10:30:37;15.35;;;8.60;;
72639;SDS011;60683;51.730;8.762;2023-05-10T10:33:18;21.08;;;10.25;;
72639;SDS011;60683;51.730;8.762;2023-05-10T10:36:02;21.83;;;9.90;;
72639;SDS011;60683;51.730;8.762;2023-05-10T10:38:37;17.02;;;9.43;;
72639;SDS011;60683;51.730;8.762;2023-05-10T10:41:09;17.45;;;9.05;;
72639;SDS011;60683;51.730;8.762;2023-05-10T10:43:38;20.00;;;9.52;;
72639;SDS011;60683;51.730;8.762;2023-05-10T10:46:10;17.83;;;8.88;;
72639;SDS011;60683;51.730;8.762;2023-05-10T10:48:41;22.38;;;10.70;;
72639;SDS011;60683;51.730;8.762;2023-05-10T10:51:10;22.48;;;11.23;;
72639;SDS011;60683;51.730;8.762;2023-05-10T10:53:40;23.92;;;10.98;;
72639;SDS011;60683;51.730;8.762;2023-05-10T10:56:08;22.77;;;10.90;;
72639;SDS011;60683;51.730;8.762;2023-05-10T10:58:37;23.38;;;10.88;;
72639;SDS011;60683;51.730;8.762;2023-05-10T11:01:12;19.80;;;10.65;;
72639;SDS011;60683;51.730;8.762;2023-05-10T11:03:54;21.13;;;10.15;;
72639;SDS011;60683;51.730;8.762;2023-05-10T11:06:43;20.55;;;9.82;;
72639;SDS011;60683;51.730;8.762;2023-05-10T11:09:11;22.75;;;10.23;;
72639;SDS011;60683;51.730;8.762;2023-05-10T11:11:48;16.80;;;8.27;;
72639;SDS011;60683;51.730;8.762;2023-05-10T11:14:19;13.48;;;7.78;;
72639;SDS011;60683;51.730;8.762;2023-05-10T11:16:47;14.90;;;7.97;;
72639;SDS011;60683;51.730;8.762;2023-05-10T11:19:17;16.40;;;8.27;;
72639;SDS011;60683;51.730;8.762;2023-05-10T11:21:45;16.38;;;9.00;;
72639;SDS011;60683;51.730;8.762;2023-05-10T11:24:14;14.18;;;8.07;;
72639;SDS011;60683;51.730;8.762;2023-05-10T11:26:42;14.57;;;8.65;;
72639;SDS011;60683;51.730;8.762;2023-05-10T11:29:11;16.52;;;8.55;;
72639;SDS011;60683;51.730;8.762;2023-05-10T11:34:11;16.13;;;9.70;;
72639;SDS011;60683;51.730;8.762;2023-05-10T11:36:44;16.55;;;9.20;;
72639;SDS011;60683;51.730;8.762;2023-05-10T11:39:19;19.17;;;10.07;;
72639;SDS011;60683;51.730;8.762;2023-05-10T11:41:48;17.63;;;10.90;;
72639;SDS011;60683;51.730;8.762;2023-05-10T11:44:16;22.95;;;11.55;;
72639;SDS011;60683;51.730;8.762;2023-05-10T11:46:45;20.75;;;10.40;;
72639;SDS011;60683;51.730;8.762;2023-05-10T11:49:13;19.73;;;10.10;;
72639;SDS011;60683;51.730;8.762;2023-05-10T11:51:40;20.42;;;10.00;;
72639;SDS011;60683;51.730;8.762;2023-05-10T11:54:11;18.67;;;9.93;;
72639;SDS011;60683;51.730;8.762;2023-05-10T11:56:39;16.85;;;9.18;;
72639;SDS011;60683;51.730;8.762;2023-05-10T11:59:07;17.45;;;10.13;;
72639;SDS011;60683;51.730;8.762;2023-05-10T12:01:35;17.02;;;7.53;;
72639;SDS011;60683;51.730;8.762;2023-05-10T12:04:03;15.52;;;8.23;;
72639;SDS011;60683;51.730;8.762;2023-05-10T12:06:32;14.63;;;7.30;;
72639;SDS011;60683;51.730;8.762;2023-05-10T12:09:07;14.85;;;8.57;;
72639;SDS011;60683;51.730;8.762;2023-05-10T12:11:37;14.35;;;6.85;;
72639;SDS011;60683;51.730;8.762;2023-05-10T12:14:07;14.00;;;7.45;;
72639;SDS011;60683;51.730;8.762;2023-05-10T12:16:35;16.40;;;8.35;;
72639;SDS011;60683;51.730;8.762;2023-05-10T12:19:03;15.98;;;7.97;;
72639;SDS011;60683;51.730;8.762;2023-05-10T12:21:31;13.35;;;7.25;;
72639;SDS011;60683;51.730;8.762;2023-05-10T12:23:59;18.10;;;8.18;;
72639;SDS011;60683;51.730;8.762;2023-05-10T12:26:28;16.50;;;7.65;;
72639;SDS011;60683;51.730;8.762;2023-05-10T12:31:51;7.55;;;3.28;;
72639;SDS011;60683;51.730;8.762;2023-05-10T12:34:22;7.80;;;3.25;;
72639;SDS011;60683;51.730;8.762;2023-05-10T12:36:53;6.05;;;2.72;;
72639;SDS011;60683;51.730;8.762;2023-05-10T12:39:21;6.10;;;2.80;;
72639;SDS011;60683;51.730;8.762;2023-05-10T12:41:49;5.47;;;2.40;;
72639;SDS011;60683;51.730;8.762;2023-05-10T12:44:18;6.82;;;2.88;;
72639;SDS011;60683;51.730;8.762;2023-05-10T12:46:45;5.35;;;2.38;;
72639;SDS011;60683;51.730;8.762;2023-05-10T12:49:13;5.80;;;2.75;;
72639;SDS011;60683;51.730;8.762;2023-05-10T12:51:41;5.03;;;2.65;;
72639;SDS011;60683;51.730;8.762;2023-05-10T12:54:09;6.68;;;2.70;;
72639;SDS011;60683;51.730;8.762;2023-05-10T12:56:36;4.53;;;2.05;;
72639;SDS011;60683;51.730;8.762;2023-05-10T13:04:03;4.80;;;2.08;;
72639;SDS011;60683;51.730;8.762;2023-05-10T13:06:31;6.65;;;2.22;;
72639;SDS011;60683;51.730;8.762;2023-05-10T13:08:59;5.63;;;2.25;;
72639;SDS011;60683;51.730;8.762;2023-05-10T13:11:27;3.97;;;1.98;;
72639;SDS011;60683;51.730;8.762;2023-05-10T13:13:55;4.05;;;1.73;;
72639;SDS011;60683;51.730;8.762;2023-05-10T13:16:22;4.65;;;2.05;;
72639;SDS011;60683;51.730;8.762;2023-05-10T13:18:51;4.20;;;2.15;;
72639;SDS011;60683;51.730;8.762;2023-05-10T13:21:18;4.40;;;2.13;;
72639;SDS011;60683;51.730;8.762;2023-05-10T13:23:46;6.22;;;2.80;;
72639;SDS011;60683;51.730;8.762;2023-05-10T13:26:15;4.82;;;2.10;;
72639;SDS011;60683;51.730;8.762;2023-05-10T13:29:03;4.43;;;2.00;;
72639;SDS011;60683;51.730;8.762;2023-05-10T13:31:30;6.55;;;1.85;;
72639;SDS011;60683;51.730;8.762;2023-05-10T13:34:00;5.15;;;2.05;;
72639;SDS011;60683;51.730;8.762;2023-05-10T13:36:29;4.47;;;2.00;;
72639;SDS011;60683;51.730;8.762;2023-05-10T13:38:57;4.95;;;2.00;;
72639;SDS011;60683;51.730;8.762;2023-05-10T13:41:27;6.57;;;1.95;;
72639;SDS011;60683;51.730;8.762;2023-05-10T13:43:55;6.00;;;2.30;;
72639;SDS011;60683;51.730;8.762;2023-05-10T13:46:22;4.82;;;1.88;;
72639;SDS011;60683;51.730;8.762;2023-05-10T13:48:50;3.88;;;1.85;;
72639;SDS011;60683;51.730;8.762;2023-05-10T13:51:19;4.70;;;2.50;;
72639;SDS011;60683;51.730;8.762;2023-05-10T13:53:46;6.25;;;2.40;;
72639;SDS011;60683;51.730;8.762;2023-05-10T13:56:14;5.43;;;2.95;;
72639;SDS011;60683;51.730;8.762;2023-05-10T13:58:42;6.22;;;2.85;;
72639;SDS011;60683;51.730;8.762;2023-05-10T14:01:10;5.85;;;2.65;;
72639;SDS011;60683;51.730;8.762;2023-05-10T14:03:38;6.47;;;2.75;;
72639;SDS011;60683;51.730;8.762;2023-05-10T14:06:05;7.68;;;2.88;;
72639;SDS011;60683;51.730;8.762;2023-05-10T14:08:35;6.88;;;3.67;;
72639;SDS011;60683;51.730;8.762;2023-05-10T14:11:03;7.53;;;3.70;;
72639;SDS011;60683;51.730;8.762;2023-05-10T14:13:31;8.20;;;4.72;;
72639;SDS011;60683;51.730;8.762;2023-05-10T14:15:58;7.85;;;3.38;;
72639;SDS011;60683;51.730;8.762;2023-05-10T14:18:26;9.70;;;4.55;;
72639;SDS011;60683;51.730;8.762;2023-05-10T14:20:54;9.15;;;4.50;;
72639;SDS011;60683;51.730;8.762;2023-05-10T14:23:22;6.57;;;3.13;;
72639;SDS011;60683;51.730;8.762;2023-05-10T14:25:52;8.52;;;2.97;;
72639;SDS011;60683;51.730;8.762;2023-05-10T14:28:20;9.07;;;3.58;;
72639;SDS011;60683;51.730;8.762;2023-05-10T14:30:49;14.23;;;5.15;;
72639;SDS011;60683;51.730;8.762;2023-05-10T14:33:17;14.75;;;6.03;;
72639;SDS011;60683;51.730;8.762;2023-05-10T14:35:45;14.98;;;5.75;;
72639;SDS011;60683;51.730;8.762;2023-05-10T14:38:13;12.55;;;6.22;;
72639;SDS011;60683;51.730;8.762;2023-05-10T14:40:40;17.42;;;7.47;;
72639;SDS011;60683;51.730;8.762;2023-05-10T14:43:11;16.65;;;7.57;;
72639;SDS011;60683;51.730;8.762;2023-05-10T14:45:41;15.25;;;6.82;;
72639;SDS011;60683;51.730;8.762;2023-05-10T14:48:10;17.05;;;7.68;;
72639;SDS011;60683;51.730;8.762;2023-05-10T14:50:41;15.00;;;6.65;;
72639;SDS011;60683;51.730;8.762;2023-05-10T14:53:09;18.95;;;7.28;;
72639;SDS011;60683;51.730;8.762;2023-05-10T14:55:37;13.50;;;6.68;;
72639;SDS011;60683;51.730;8.762;2023-05-10T14:58:05;16.05;;;7.10;;
72639;SDS011;60683;51.730;8.762;2023-05-10T15:00:34;12.68;;;6.03;;
72639;SDS011;60683;51.730;8.762;2023-05-10T15:03:06;14.43;;;7.25;;
72639;SDS011;60683;51.730;8.762;2023-05-10T15:05:34;15.93;;;7.13;;